Time;durP1;ratioP1;P1;durP2;ratioP2;P2;SDS_P1;SDS_P2;PMS_P1;PMS_P2;Temp;Humidity;BMP_temperature;BMP_pressure;BME280_temperature;BME280_humidity;BME280_pressure;Samples;Min_cycle;Max_cycle;Signal;HPM_P1;HPM_P2
2023/08/01 00:01:33;;;;;;;6.23;3.47;;;15.40;99.90;;;;;;5079567;28;20221;-79
2023/08/01 00:04:00;;;;;;;3.70;3.37;;;15.50;99.90;;;;;;5082910;28;20289;-79
2023/08/01 00:06:27;;;;;;;3.83;3.07;;;15.50;99.90;;;;;;5080133;28;20242;-79
2023/08/01 00:08:55;;;;;;;4.77;3.63;;;15.50;99.90;;;;;;5065217;28;20231;-79
2023/08/01 00:11:21;;;;;;;4.43;3.80;;;15.50;99.90;;;;;;5083121;28;20240;-79
2023/08/01 00:13:48;;;;;;;5.57;3.60;;;15.50;99.90;;;;;;5067966;28;20237;-80
2023/08/01 00:16:15;;;;;;;3.70;3.37;;;15.50;99.90;;;;;;5087400;28;20224;-79
2023/08/01 00:18:41;;;;;;;4.63;3.67;;;15.50;99.90;;;;;;5082170;28;20229;-79
2023/08/01 00:21:10;;;;;;;3.93;3.50;;;15.40;99.90;;;;;;5079450;28;20964;-79
2023/08/01 00:23:36;;;;;;;4.43;3.27;;;15.40;99.90;;;;;;5080796;28;20307;-79
2023/08/01 00:26:05;;;;;;;3.90;3.47;;;15.40;99.90;;;;;;5063955;28;20240;-80
2023/08/01 00:28:32;;;;;;;3.77;3.37;;;15.40;99.90;;;;;;5059345;28;20357;-80
2023/08/01 00:31:06;;;;;;;3.70;3.27;;;15.40;99.90;;;;;;5064323;28;20487;-79
2023/08/01 00:33:33;;;;;;;3.97;3.27;;;15.40;99.90;;;;;;5064162;28;20262;-79
2023/08/01 00:36:00;;;;;;;3.10;2.67;;;15.40;99.90;;;;;;5066838;28;20805;-80
2023/08/01 00:38:27;;;;;;;3.47;2.50;;;15.30;99.90;;;;;;5060009;28;20710;-79
2023/08/01 00:40:54;;;;;;;3.20;2.83;;;15.30;99.90;;;;;;5085914;28;20263;-79
2023/08/01 00:43:22;;;;;;;3.10;2.80;;;15.30;99.90;;;;;;5065786;28;20224;-79
2023/08/01 00:45:50;;;;;;;3.07;2.77;;;15.30;99.90;;;;;;5063575;28;20225;-79
2023/08/01 00:48:18;;;;;;;4.37;2.80;;;15.20;99.90;;;;;;5083672;28;20276;-79
2023/08/01 00:50:46;;;;;;;3.60;2.80;;;15.20;99.90;;;;;;5083499;28;20221;-79
2023/08/01 00:53:13;;;;;;;3.20;2.40;;;15.20;99.90;;;;;;5063849;28;20315;-80
2023/08/01 00:55:41;;;;;;;2.83;2.50;;;15.20;99.90;;;;;;5061311;28;20573;-79
2023/08/01 00:58:08;;;;;;;3.03;2.60;;;15.20;99.90;;;;;;5080955;28;20240;-79
2023/08/01 01:00:36;;;;;;;3.63;2.53;;;15.20;99.90;;;;;;5064441;28;20227;-79
2023/08/01 01:03:03;;;;;;;3.17;2.50;;;15.20;99.90;;;;;;5064695;28;20255;-79
2023/08/01 01:05:35;;;;;;;3.37;2.40;;;15.10;99.90;;;;;;5061361;28;20308;-79
2023/08/01 01:08:03;;;;;;;3.57;2.23;;;15.10;99.90;;;;;;5080026;28;20316;-80
2023/08/01 01:10:30;;;;;;;4.33;3.00;;;15.10;99.90;;;;;;5081377;28;20670;-79
2023/08/01 01:12:58;;;;;;;2.93;2.47;;;15.10;99.90;;;;;;5085355;28;20894;-79
2023/08/01 01:15:24;;;;;;;4.60;2.60;;;15.10;99.90;;;;;;5059120;28;20343;-80
2023/08/01 01:17:52;;;;;;;5.17;2.70;;;15.10;99.90;;;;;;5067588;28;20230;-80
2023/08/01 01:20:23;;;;;;;3.83;2.90;;;15.10;99.90;;;;;;5065415;28;20232;-80
2023/08/01 01:22:53;;;;;;;5.13;3.40;;;15.10;99.90;;;;;;5077278;28;20225;-80
2023/08/01 01:25:21;;;;;;;4.63;3.10;;;15.00;99.90;;;;;;5064674;28;20231;-80
2023/08/01 01:27:49;;;;;;;3.50;3.03;;;15.00;99.90;;;;;;5086423;28;20337;-80
2023/08/01 01:30:16;;;;;;;4.77;3.23;;;15.00;99.90;;;;;;5081325;28;20219;-81
2023/08/01 01:32:43;;;;;;;4.17;3.10;;;15.00;99.90;;;;;;5062544;28;20323;-80
2023/08/01 01:35:10;;;;;;;3.80;3.00;;;15.10;99.90;;;;;;5082689;28;20701;-80
2023/08/01 01:37:37;;;;;;;4.17;3.23;;;15.00;99.90;;;;;;5065769;28;20322;-80
2023/08/01 01:40:06;;;;;;;5.23;3.57;;;15.00;99.90;;;;;;5065703;28;20226;-80
2023/08/01 01:42:33;;;;;;;4.80;3.93;;;15.00;99.90;;;;;;5064236;28;20227;-80
2023/08/01 01:45:00;;;;;;;4.93;3.80;;;15.00;99.90;;;;;;5061656;28;20226;-79
2023/08/01 01:47:27;;;;;;;4.00;3.50;;;14.90;99.90;;;;;;5059366;28;20649;-79
2023/08/01 01:49:54;;;;;;;4.07;3.67;;;14.90;99.90;;;;;;5063280;28;20248;-79
2023/08/01 01:52:20;;;;;;;4.80;3.50;;;14.90;99.90;;;;;;5082036;28;20231;-79
2023/08/01 01:54:47;;;;;;;4.20;3.80;;;14.90;99.90;;;;;;5079669;28;20247;-80
2023/08/01 01:57:15;;;;;;;4.80;4.00;;;14.90;99.90;;;;;;5081651;28;20236;-80
2023/08/01 01:59:42;;;;;;;4.70;3.67;;;14.90;99.90;;;;;;5061191;28;20984;-79
2023/08/01 02:02:09;;;;;;;7.30;3.97;;;14.90;99.90;;;;;;5062378;28;20222;-80
2023/08/01 02:04:35;;;;;;;5.37;4.13;;;14.90;99.90;;;;;;5077187;28;20317;-80
2023/08/01 02:07:02;;;;;;;4.97;4.07;;;15.00;99.90;;;;;;5083538;28;20526;-79
2023/08/01 02:09:29;;;;;;;6.47;4.40;;;15.00;99.90;;;;;;5063253;28;20857;-79
2023/08/01 02:11:56;;;;;;;5.20;4.70;;;15.00;99.90;;;;;;5065819;28;20217;-80
2023/08/01 02:14:24;;;;;;;4.87;4.37;;;15.00;99.90;;;;;;5060405;28;20249;-80
2023/08/01 02:16:51;;;;;;;6.10;5.10;;;15.00;99.90;;;;;;5060075;28;20210;-80
2023/08/01 02:19:17;;;;;;;6.70;4.17;;;14.90;99.90;;;;;;5078446;28;20735;-80
2023/08/01 02:21:44;;;;;;;5.63;5.03;;;15.00;99.90;;;;;;5064102;28;20248;-79
2023/08/01 02:24:11;;;;;;;6.07;5.30;;;15.00;99.90;;;;;;5060577;28;20231;-79
2023/08/01 02:26:38;;;;;;;6.13;4.83;;;15.00;99.90;;;;;;5061735;28;20229;-79
2023/08/01 02:29:04;;;;;;;5.10;4.60;;;14.90;99.90;;;;;;5068473;28;20305;-79
2023/08/01 02:31:33;;;;;;;6.10;4.50;;;14.90;99.90;;;;;;5078511;28;20237;-78
2023/08/01 02:33:59;;;;;;;7.37;4.77;;;14.90;99.90;;;;;;5080289;28;20229;-79
2023/08/01 02:36:26;;;;;;;5.00;4.27;;;14.90;99.90;;;;;;5060361;28;20311;-79
2023/08/01 02:38:54;;;;;;;10.37;4.50;;;14.90;99.90;;;;;;5083314;28;20287;-78
2023/08/01 02:41:21;;;;;;;5.37;4.20;;;14.90;99.90;;;;;;5058827;28;20868;-79
2023/08/01 02:43:47;;;;;;;6.77;4.77;;;14.90;99.90;;;;;;5075977;28;20292;-79
2023/08/01 02:46:14;;;;;;;6.90;5.40;;;14.80;99.90;;;;;;5084607;28;20222;-79
2023/08/01 02:48:43;;;;;;;5.43;4.93;;;14.80;99.90;;;;;;5080753;28;20307;-79
2023/08/01 02:51:10;;;;;;;5.77;5.17;;;14.80;99.90;;;;;;5062029;28;20257;-79
2023/08/01 02:53:37;;;;;;;6.53;5.10;;;14.90;99.90;;;;;;5076554;28;20214;-78
2023/08/01 02:56:07;;;;;;;7.37;5.80;;;14.80;99.90;;;;;;5061467;28;20320;-78
2023/08/01 02:58:34;;;;;;;7.23;5.40;;;14.80;99.90;;;;;;5059075;28;20279;-78
2023/08/01 03:01:01;;;;;;;6.67;5.97;;;14.80;99.90;;;;;;5057385;28;20219;-78
2023/08/01 03:03:28;;;;;;;6.17;5.50;;;14.80;99.90;;;;;;5059033;28;20248;-78
2023/08/01 03:05:56;;;;;;;8.33;5.80;;;14.90;99.90;;;;;;5060086;28;20226;-78
2023/08/01 03:08:23;;;;;;;6.40;5.80;;;14.80;99.90;;;;;;5056927;28;20226;-79
2023/08/01 03:10:51;;;;;;;8.53;6.07;;;14.80;99.90;;;;;;5057820;28;20213;-79
2023/08/01 03:13:18;;;;;;;7.03;5.93;;;14.80;99.90;;;;;;5059332;28;20221;-79
2023/08/01 03:15:44;;;;;;;7.10;6.10;;;14.80;99.90;;;;;;5056078;28;20219;-78
2023/08/01 03:18:11;;;;;;;7.77;6.13;;;14.80;99.90;;;;;;5054707;28;20226;-78
2023/08/01 03:20:38;;;;;;;8.70;6.87;;;14.80;99.90;;;;;;5061062;28;20227;-79
2023/08/01 03:23:06;;;;;;;8.47;6.23;;;14.80;99.90;;;;;;5065403;28;20220;-79
2023/08/01 03:25:33;;;;;;;8.87;7.43;;;14.90;99.90;;;;;;5077833;28;20224;-79
2023/08/01 03:28:00;;;;;;;8.90;7.20;;;14.80;99.90;;;;;;5058942;28;20318;-80
2023/08/01 03:30:28;;;;;;;8.77;6.67;;;14.80;99.90;;;;;;5058189;28;20227;-79
2023/08/01 03:32:55;;;;;;;9.23;7.60;;;14.80;99.90;;;;;;5079886;28;20270;-78
2023/08/01 03:35:23;;;;;;;11.07;7.63;;;14.90;99.90;;;;;;5061289;28;20226;-78
2023/08/01 03:37:50;;;;;;;8.30;7.47;;;14.80;99.90;;;;;;5065809;28;20701;-79
2023/08/01 03:40:19;;;;;;;11.50;8.13;;;14.90;99.90;;;;;;5084196;28;20222;-79
2023/08/01 03:42:46;;;;;;;10.40;8.30;;;14.90;99.90;;;;;;5083496;28;20257;-79
2023/08/01 03:45:13;;;;;;;10.60;7.87;;;14.90;99.90;;;;;;5064757;28;20230;-79
2023/08/01 03:47:40;;;;;;;11.33;7.87;;;14.90;99.90;;;;;;5063043;28;20314;-79
2023/08/01 03:50:07;;;;;;;9.07;7.67;;;14.90;99.90;;;;;;5068775;28;20567;-80
2023/08/01 03:52:34;;;;;;;11.13;8.53;;;15.00;99.90;;;;;;5067107;28;20232;-80
2023/08/01 03:55:01;;;;;;;10.30;8.87;;;15.00;99.90;;;;;;5080438;28;20224;-80
2023/08/01 03:57:29;;;;;;;12.93;9.00;;;15.00;99.90;;;;;;5084537;28;20221;-80
2023/08/01 03:59:55;;;;;;;10.63;9.20;;;15.00;99.90;;;;;;5069896;28;20232;-79
2023/08/01 04:02:22;;;;;;;10.33;8.33;;;15.00;99.90;;;;;;5087877;28;20233;-80
2023/08/01 04:04:50;;;;;;;12.10;9.50;;;15.10;99.90;;;;;;5086537;28;20218;-80
2023/08/01 04:07:18;;;;;;;9.97;8.83;;;15.10;99.90;;;;;;5084242;28;20896;-79
2023/08/01 04:09:45;;;;;;;11.23;8.97;;;15.10;99.90;;;;;;5083607;28;20221;-79
2023/08/01 04:12:11;;;;;;;11.80;8.97;;;15.20;99.90;;;;;;5083545;28;20236;-79
2023/08/01 04:14:40;;;;;;;11.33;9.40;;;15.20;99.90;;;;;;5085453;28;20229;-79
2023/08/01 04:17:06;;;;;;;11.10;9.73;;;15.20;99.90;;;;;;5065182;28;20221;-79
2023/08/01 04:19:33;;;;;;;12.37;9.00;;;15.20;99.90;;;;;;5086427;28;20923;-79
2023/08/01 04:22:00;;;;;;;9.97;8.53;;;15.20;99.90;;;;;;5066260;28;20644;-79
2023/08/01 04:24:27;;;;;;;10.13;8.40;;;15.20;99.90;;;;;;5083773;28;20222;-80
2023/08/01 04:26:54;;;;;;;12.50;8.93;;;15.20;99.90;;;;;;5083105;28;20738;-79
2023/08/01 04:29:20;;;;;;;9.93;7.90;;;15.20;99.90;;;;;;5084884;28;20765;-80
2023/08/01 04:31:48;;;;;;;12.47;8.90;;;15.30;99.90;;;;;;5081462;28;20762;-79
2023/08/01 04:34:15;;;;;;;13.23;9.23;;;15.30;99.90;;;;;;5067833;28;20220;-79
2023/08/01 04:36:42;;;;;;;11.73;8.97;;;15.30;99.90;;;;;;5077678;28;20220;-79
2023/08/01 04:39:08;;;;;;;11.07;8.40;;;15.30;99.90;;;;;;5082891;28;20229;-82
2023/08/01 04:41:35;;;;;;;10.93;7.70;;;15.30;99.90;;;;;;5052661;28;20227;-82
2023/08/01 04:44:02;;;;;;;9.13;7.40;;;15.40;99.90;;;;;;5077685;28;20278;-82
2023/08/01 04:46:29;;;;;;;9.17;8.23;;;15.40;99.90;;;;;;5064142;28;20243;-82
2023/08/01 04:48:58;;;;;;;10.10;9.00;;;15.40;99.90;;;;;;5084745;28;20216;-82
2023/08/01 04:51:25;;;;;;;9.27;8.00;;;15.40;99.90;;;;;;5080832;28;20228;-82
2023/08/01 04:53:52;;;;;;;13.97;9.30;;;15.40;99.90;;;;;;5064565;28;20242;-82
2023/08/01 04:56:19;;;;;;;9.30;8.37;;;15.40;99.90;;;;;;5078385;28;20839;-82
2023/08/01 04:58:46;;;;;;;15.13;8.80;;;15.40;99.90;;;;;;5084352;28;20241;-83
2023/08/01 05:01:13;;;;;;;9.60;8.23;;;15.40;99.90;;;;;;5063188;28;20351;-81
2023/08/01 05:03:40;;;;;;;9.57;8.57;;;15.40;99.90;;;;;;5058321;28;20254;-82
2023/08/01 05:06:08;;;;;;;10.63;8.90;;;15.50;99.90;;;;;;5084382;28;20234;-82
2023/08/01 05:08:35;;;;;;;9.33;8.13;;;15.50;99.90;;;;;;5077314;28;20239;-80
2023/08/01 05:11:02;;;;;;;10.30;8.80;;;15.50;99.90;;;;;;5088790;28;20224;-78
2023/08/01 05:13:29;;;;;;;9.90;7.90;;;15.50;99.90;;;;;;5084232;28;20233;-80
2023/08/01 05:15:56;;;;;;;11.13;8.80;;;15.50;99.90;;;;;;5085535;28;20302;-78
2023/08/01 05:18:23;;;;;;;9.53;7.87;;;15.50;99.90;;;;;;5059763;28;20229;-78
2023/08/01 05:20:49;;;;;;;9.33;8.33;;;15.60;99.90;;;;;;5065732;28;20232;-79
2023/08/01 05:23:17;;;;;;;10.70;8.30;;;15.60;99.90;;;;;;5073770;28;20247;-78
2023/08/01 05:25:44;;;;;;;8.70;7.57;;;15.60;99.90;;;;;;5087451;28;20285;-78
2023/08/01 05:28:11;;;;;;;8.37;7.53;;;15.60;99.90;;;;;;5088492;28;20240;-79
2023/08/01 05:30:38;;;;;;;9.97;7.27;;;15.70;99.90;;;;;;5072572;28;20223;-79
2023/08/01 05:33:05;;;;;;;10.80;7.80;;;15.70;99.90;;;;;;5079340;28;20240;-78
2023/08/01 05:35:32;;;;;;;13.13;7.87;;;15.80;99.90;;;;;;5074626;28;20232;-79
2023/08/01 05:37:59;;;;;;;8.43;7.53;;;15.80;99.90;;;;;;5061180;28;20317;-79
2023/08/01 05:40:27;;;;;;;10.40;7.43;;;15.80;99.90;;;;;;5090224;28;20217;-79
2023/08/01 05:42:54;;;;;;;10.53;7.13;;;15.90;99.90;;;;;;5077408;28;20224;-79
2023/08/01 05:45:21;;;;;;;14.03;8.00;;;15.90;99.90;;;;;;5088319;28;20246;-79
2023/08/01 05:47:47;;;;;;;8.50;6.90;;;15.90;99.90;;;;;;5079466;28;20244;-78
2023/08/01 05:50:14;;;;;;;9.47;6.90;;;15.90;99.90;;;;;;5090174;28;20261;-78
2023/08/01 05:52:41;;;;;;;10.67;7.00;;;15.90;99.90;;;;;;5072957;28;20225;-79
2023/08/01 05:55:08;;;;;;;8.87;7.47;;;15.90;99.90;;;;;;5065865;28;20229;-78
2023/08/01 05:57:37;;;;;;;9.33;7.23;;;15.90;99.90;;;;;;5087826;28;20225;-79
2023/08/01 06:00:04;;;;;;;10.90;7.37;;;15.90;99.90;;;;;;5086727;28;20657;-79
2023/08/01 06:02:39;;;;;;;9.20;7.23;;;15.90;99.90;;;;;;5086608;28;20224;-79
2023/08/01 06:05:06;;;;;;;9.63;7.20;;;15.90;99.90;;;;;;5083344;28;20225;-79
2023/08/01 06:07:33;;;;;;;9.63;7.03;;;16.00;99.90;;;;;;5064402;28;20240;-78
2023/08/01 06:10:00;;;;;;;10.37;7.00;;;16.00;99.90;;;;;;5082949;28;20232;-79
2023/08/01 06:12:26;;;;;;;13.53;6.70;;;16.00;99.90;;;;;;5084296;28;20226;-79
2023/08/01 06:14:54;;;;;;;11.10;6.97;;;16.00;99.90;;;;;;5070775;28;20305;-79
2023/08/01 06:17:21;;;;;;;10.10;6.13;;;16.00;99.90;;;;;;5082003;28;20634;-78
2023/08/01 06:19:49;;;;;;;10.27;6.83;;;16.00;99.90;;;;;;5086523;28;20279;-79
2023/08/01 06:22:16;;;;;;;10.53;6.83;;;16.00;99.90;;;;;;5067036;28;20254;-79
2023/08/01 06:24:43;;;;;;;8.73;6.17;;;16.00;99.90;;;;;;5065956;28;20224;-79
2023/08/01 06:27:09;;;;;;;9.40;6.10;;;16.10;99.90;;;;;;5067561;28;20230;-78
2023/08/01 06:29:37;;;;;;;9.33;5.97;;;16.10;99.90;;;;;;5083013;28;20228;-79
2023/08/01 06:32:06;;;;;;;13.13;8.43;;;16.10;99.90;;;;;;5085659;28;20312;-79
2023/08/01 06:34:32;;;;;;;14.07;6.30;;;16.10;99.90;;;;;;5066438;28;20773;-78
2023/08/01 06:36:59;;;;;;;9.27;6.60;;;16.20;99.90;;;;;;5083013;28;20212;-79
2023/08/01 06:39:26;;;;;;;9.27;6.23;;;16.20;99.90;;;;;;5064302;28;20225;-78
2023/08/01 06:41:52;;;;;;;9.40;5.80;;;16.20;99.90;;;;;;5065685;28;20221;-79
2023/08/01 06:44:19;;;;;;;8.60;5.90;;;16.20;99.90;;;;;;5068175;28;20229;-79
2023/08/01 06:46:46;;;;;;;10.30;6.40;;;16.30;99.90;;;;;;5083502;28;20231;-78
2023/08/01 06:49:14;;;;;;;12.57;6.90;;;16.40;99.90;;;;;;5084560;28;20226;-79
2023/08/01 06:51:41;;;;;;;9.63;6.73;;;16.40;99.90;;;;;;5078117;28;20222;-78
2023/08/01 06:54:08;;;;;;;7.27;5.50;;;16.50;99.90;;;;;;5061829;28;20222;-78
2023/08/01 06:56:35;;;;;;;8.30;5.53;;;16.60;99.90;;;;;;5067405;28;20253;-79
2023/08/01 06:59:01;;;;;;;7.97;5.90;;;16.60;99.90;;;;;;5067208;28;20225;-78
2023/08/01 07:01:28;;;;;;;7.50;4.73;;;16.70;99.90;;;;;;5083100;28;20320;-79
2023/08/01 07:03:56;;;;;;;9.53;5.20;;;16.70;99.90;;;;;;5087962;28;20372;-79
2023/08/01 07:06:24;;;;;;;7.60;5.33;;;16.70;99.90;;;;;;5080322;28;20300;-78
2023/08/01 07:08:51;;;;;;;6.93;4.97;;;16.60;99.90;;;;;;5086084;28;20221;-79
2023/08/01 07:11:18;;;;;;;7.10;4.70;;;16.60;99.90;;;;;;5090159;28;20596;-79
2023/08/01 07:13:45;;;;;;;16.70;5.17;;;16.60;99.90;;;;;;5090467;28;20227;-79
2023/08/01 07:16:12;;;;;;;7.70;4.90;;;16.60;99.90;;;;;;5088809;28;20626;-79
2023/08/01 07:18:38;;;;;;;6.83;4.10;;;16.60;99.90;;;;;;5071777;28;20695;-79
2023/08/01 07:21:05;;;;;;;10.07;4.17;;;16.60;99.90;;;;;;5071140;28;20228;-79
2023/08/01 07:23:36;;;;;;;6.20;3.70;;;16.60;99.90;;;;;;5090048;28;20226;-80
2023/08/01 07:26:03;;;;;;;6.40;3.40;;;16.60;99.90;;;;;;5090407;28;20229;-79
2023/08/01 07:28:29;;;;;;;6.63;3.60;;;16.70;99.90;;;;;;5071093;28;20227;-79
2023/08/01 07:31:00;;;;;;;6.87;3.30;;;16.70;99.90;;;;;;5071554;28;20721;-79
2023/08/01 07:33:27;;;;;;;5.37;3.00;;;16.70;99.90;;;;;;5089347;28;20220;-79
2023/08/01 07:35:54;;;;;;;3.63;3.03;;;16.80;99.90;;;;;;5071453;28;20233;-79
2023/08/01 07:38:20;;;;;;;5.47;3.00;;;16.90;99.90;;;;;;5070728;28;20261;-79
2023/08/01 07:40:48;;;;;;;5.53;3.03;;;17.10;99.90;;;;;;5090651;28;20233;-79
2023/08/01 07:43:15;;;;;;;8.40;3.17;;;17.30;99.90;;;;;;5070889;28;20224;-80
2023/08/01 07:45:42;;;;;;;6.23;2.90;;;17.60;99.90;;;;;;5089723;28;20239;-79
2023/08/01 07:48:09;;;;;;;4.90;3.03;;;17.80;99.90;;;;;;5089156;28;20233;-79
2023/08/01 07:50:35;;;;;;;6.33;2.80;;;18.00;99.90;;;;;;5089742;28;20233;-79
2023/08/01 07:53:02;;;;;;;6.87;2.50;;;18.30;99.90;;;;;;5090232;28;20225;-79
2023/08/01 07:55:28;;;;;;;5.30;3.03;;;18.60;99.90;;;;;;5089872;28;20229;-79
2023/08/01 07:57:56;;;;;;;3.63;2.40;;;18.80;99.90;;;;;;5090002;28;20225;-80
2023/08/01 08:00:23;;;;;;;4.63;3.10;;;19.00;99.90;;;;;;5089547;28;20237;-79
2023/08/01 08:02:50;;;;;;;5.43;2.93;;;19.20;99.90;;;;;;5089526;28;20226;-79
2023/08/01 08:05:16;;;;;;;5.60;2.80;;;19.50;99.90;;;;;;5089012;28;20223;-79
2023/08/01 08:07:43;;;;;;;8.80;2.87;;;19.70;99.90;;;;;;5106956;28;20609;-79
2023/08/01 08:10:10;;;;;;;4.03;2.33;;;19.80;99.90;;;;;;5109284;28;20708;-79
2023/08/01 08:12:37;;;;;;;6.75;2.85;;;20.00;99.90;;;;;;5109878;28;20234;-80
2023/08/01 08:15:05;;;;;;;4.90;2.50;;;20.10;99.90;;;;;;5108821;28;20236;-79
2023/08/01 08:17:32;;;;;;;5.97;2.75;;;20.30;99.90;;;;;;5090803;28;20606;-79
2023/08/01 08:19:59;;;;;;;5.70;3.05;;;20.60;99.90;;;;;;5111043;28;20224;-79
2023/08/01 08:22:25;;;;;;;7.78;2.90;;;20.80;99.90;;;;;;5112727;28;20233;-79
2023/08/01 08:24:52;;;;;;;5.68;3.10;;;21.10;99.90;;;;;;5113236;28;20683;-79
2023/08/01 08:27:19;;;;;;;6.13;2.80;;;21.50;99.90;;;;;;5112584;28;20222;-79
2023/08/01 08:29:45;;;;;;;4.95;2.78;;;21.90;99.90;;;;;;5112985;28;20229;-79
2023/08/01 08:32:13;;;;;;;8.13;3.05;;;22.20;99.90;;;;;;5091469;28;20233;-79
2023/08/01 08:34:40;;;;;;;4.10;2.45;;;22.60;99.90;;;;;;5113589;28;20226;-79
2023/08/01 08:37:07;;;;;;;3.75;2.53;;;22.80;99.90;;;;;;5094433;28;20222;-79
2023/08/01 08:39:33;;;;;;;5.70;2.92;;;23.10;99.90;;;;;;5114015;28;20244;-79
2023/08/01 08:42:01;;;;;;;3.65;2.40;;;23.20;99.90;;;;;;5114564;28;20224;-79
2023/08/01 08:44:29;;;;;;;4.88;2.55;;;23.40;99.90;;;;;;5114621;28;20699;-79
2023/08/01 08:47:00;;;;;;;6.57;2.53;;;23.40;99.90;;;;;;5114729;28;20274;-79
2023/08/01 08:49:28;;;;;;;5.07;2.90;;;23.40;99.90;;;;;;5114448;28;20226;-79
2023/08/01 08:51:55;;;;;;;4.30;2.45;;;23.40;99.90;;;;;;5114848;28;20221;-79
2023/08/01 08:54:23;;;;;;;6.13;2.85;;;23.50;99.90;;;;;;5095883;28;20226;-79
2023/08/01 08:56:51;;;;;;;6.47;3.10;;;23.50;99.90;;;;;;5114837;28;20221;-79
2023/08/01 08:59:18;;;;;;;5.78;2.42;;;23.40;99.90;;;;;;5114548;28;20238;-79
2023/08/01 09:01:46;;;;;;;4.53;2.80;;;23.50;99.90;;;;;;5114242;28;20237;-79
2023/08/01 09:04:12;;;;;;;6.10;3.05;;;23.60;99.90;;;;;;5114337;28;20765;-79
2023/08/01 09:06:45;;;;;;;5.72;2.78;;;23.80;99.90;;;;;;5114643;28;20225;-80
2023/08/01 09:09:14;;;;;;;6.63;3.03;;;24.00;99.90;;;;;;5115337;28;20654;-80
2023/08/01 09:11:44;;;;;;;4.50;2.90;;;24.10;99.90;;;;;;5114106;28;20222;-79
2023/08/01 09:14:11;;;;;;;5.10;2.95;;;24.10;99.90;;;;;;5114372;28;20721;-79
2023/08/01 09:16:38;;;;;;;5.55;3.53;;;24.00;99.90;;;;;;5112864;28;20230;-79
2023/08/01 09:19:07;;;;;;;6.68;3.30;;;23.80;99.90;;;;;;5094931;28;20244;-80
2023/08/01 09:21:34;;;;;;;4.82;2.65;;;23.70;99.90;;;;;;5115107;28;20229;-79
2023/08/01 09:24:10;;;;;;;5.88;3.30;;;23.50;99.90;;;;;;5115316;28;20242;-80
2023/08/01 09:26:37;;;;;;;10.43;3.55;;;23.40;99.90;;;;;;5115091;28;20214;-79
2023/08/01 09:29:04;;;;;;;5.20;3.13;;;23.20;99.90;;;;;;5114723;28;20224;-80
2023/08/01 09:31:34;;;;;;;7.03;3.70;;;23.10;99.90;;;;;;5115360;28;20574;-80
2023/08/01 09:34:03;;;;;;;4.85;2.75;;;22.80;99.90;;;;;;5116890;28;20232;-80
2023/08/01 09:36:31;;;;;;;6.20;2.80;;;22.50;99.90;;;;;;5114967;28;20241;-80
2023/08/01 09:39:01;;;;;;;5.00;2.58;;;22.20;99.90;;;;;;5114083;28;20233;-80
2023/08/01 09:41:30;;;;;;;5.38;3.28;;;21.80;99.90;;;;;;5113584;28;20222;-80
2023/08/01 09:43:57;;;;;;;5.80;3.45;;;21.40;99.90;;;;;;5113781;28;20221;-80
2023/08/01 09:46:24;;;;;;;8.07;3.40;;;21.10;99.90;;;;;;5112843;28;20799;-80
2023/08/01 09:48:50;;;;;;;6.22;3.55;;;20.90;99.90;;;;;;5114412;28;20240;-80
2023/08/01 09:51:18;;;;;;;5.13;2.70;;;20.60;99.90;;;;;;5111933;28;20237;-80
2023/08/01 09:53:50;;;;;;;3.67;2.37;;;20.40;99.90;;;;;;5114242;28;20222;-80
2023/08/01 09:56:20;;;;;;;4.97;2.77;;;20.20;99.90;;;;;;5112672;28;20226;-81
2023/08/01 09:58:49;;;;;;;3.08;2.25;;;20.10;99.90;;;;;;5114406;28;20230;-80
2023/08/01 10:01:17;;;;;;;2.97;2.58;;;20.10;99.90;;;;;;5094804;28;20221;-80
2023/08/01 10:03:47;;;;;;;3.85;2.15;;;20.10;99.90;;;;;;5113457;28;20647;-80
2023/08/01 10:06:18;;;;;;;3.30;2.10;;;20.40;99.90;;;;;;5111154;28;20770;-79
2023/08/01 10:08:45;;;;;;;3.90;2.00;;;20.80;99.90;;;;;;5114144;28;20222;-80
2023/08/01 10:11:14;;;;;;;3.22;1.70;;;21.40;99.90;;;;;;5112274;28;20302;-79
2023/08/01 10:13:42;;;;;;;4.55;1.88;;;21.90;99.90;;;;;;5113768;28;20221;-80
2023/08/01 10:16:11;;;;;;;3.63;1.67;;;22.40;99.90;;;;;;5095234;28;20226;-80
2023/08/01 10:18:39;;;;;;;2.55;1.40;;;23.00;99.90;;;;;;5114071;28;20727;-79
2023/08/01 10:21:06;;;;;;;2.40;1.45;;;23.50;99.90;;;;;;5114247;28;20222;-80
2023/08/01 10:23:34;;;;;;;4.38;2.13;;;23.90;99.90;;;;;;5096540;28;20947;-80
2023/08/01 10:26:04;;;;;;;3.33;1.50;;;24.20;99.90;;;;;;5114872;28;20600;-81
2023/08/01 10:28:34;;;;;;;2.88;1.50;;;24.40;99.90;;;;;;5114859;28;20226;-80
2023/08/01 10:31:13;;;;;;;3.95;1.80;;;24.60;99.90;;;;;;5115350;28;20286;-81
2023/08/01 10:33:41;;;;;;;4.78;1.67;;;24.80;99.90;;;;;;5096304;28;20248;-80
2023/08/01 10:36:15;;;;;;;3.15;1.80;;;25.10;99.90;;;;;;5113362;28;20230;-81
2023/08/01 10:38:49;;;;;;;2.72;1.85;;;25.20;99.90;;;;;;5115667;28;20234;-81
2023/08/01 10:41:20;;;;;;;3.03;1.80;;;25.30;99.90;;;;;;5093804;28;20705;-80
2023/08/01 10:43:47;;;;;;;2.80;1.73;;;25.40;99.90;;;;;;5081579;28;20222;-80
2023/08/01 10:46:15;;;;;;;2.45;1.63;;;25.40;99.90;;;;;;5059557;28;20242;-80
2023/08/01 10:48:52;;;;;;;2.72;1.40;;;25.20;99.90;;;;;;5082872;28;20224;-80
2023/08/01 10:51:19;;;;;;;3.25;1.60;;;25.10;99.90;;;;;;5083457;28;20248;-80
2023/08/01 10:53:47;;;;;;;2.75;1.70;;;25.00;99.90;;;;;;5080648;28;20223;-80
2023/08/01 10:56:18;;;;;;;5.28;1.95;;;25.00;99.90;;;;;;5061371;28;20219;-81
2023/08/01 10:58:45;;;;;;;3.63;1.48;;;25.00;99.90;;;;;;5081618;28;20237;-80
2023/08/01 11:01:12;;;;;;;2.08;1.70;;;25.00;99.90;;;;;;5086978;28;20237;-79
2023/08/01 11:03:41;;;;;;;4.25;1.85;;;24.80;99.90;;;;;;5085159;28;20227;-80
2023/08/01 11:06:08;;;;;;;2.33;1.42;;;24.40;99.90;;;;;;5078976;28;20283;-79
2023/08/01 11:08:36;;;;;;;2.95;1.33;;;23.90;99.90;;;;;;5080476;28;20234;-79
2023/08/01 11:11:04;;;;;;;3.22;1.40;;;23.40;99.90;;;;;;5059335;28;20350;-79
2023/08/01 11:13:30;;;;;;;8.52;2.50;;;22.90;99.90;;;;;;5082780;28;20734;-80
2023/08/01 11:15:58;;;;;;;2.97;1.45;;;22.40;99.90;;;;;;5078422;28;20720;-80
2023/08/01 11:18:24;;;;;;;38.73;7.07;;;21.90;99.90;;;;;;5062205;28;20219;-80
2023/08/01 11:20:52;;;;;;;4.83;2.20;;;21.40;99.90;;;;;;5082308;28;20225;-80
2023/08/01 11:23:19;;;;;;;2.30;1.40;;;20.90;99.90;;;;;;5077930;28;20226;-79
2023/08/01 11:25:49;;;;;;;2.10;1.37;;;20.30;99.90;;;;;;5078095;28;20225;-79
2023/08/01 11:28:17;;;;;;;1.13;0.80;;;19.80;99.90;;;;;;5076433;28;20237;-79
2023/08/01 11:30:45;;;;;;;2.37;1.00;;;19.20;99.90;;;;;;5081110;28;20239;-79
2023/08/01 11:33:15;;;;;;;1.50;0.83;;;18.70;99.90;;;;;;5063843;28;20307;-79
2023/08/01 11:35:43;;;;;;;10.30;1.60;;;18.20;99.90;;;;;;5068514;28;20225;-79
2023/08/01 11:38:11;;;;;;;8.67;1.60;;;17.70;99.90;;;;;;5082553;28;20225;-80
2023/08/01 11:40:38;;;;;;;2.57;0.93;;;17.20;99.90;;;;;;5072602;28;20230;-79
2023/08/01 11:43:05;;;;;;;1.53;0.90;;;16.80;99.90;;;;;;5084834;28;20722;-80
2023/08/01 11:45:32;;;;;;;3.27;0.90;;;16.50;99.90;;;;;;5080487;28;20290;-80
2023/08/01 11:47:58;;;;;;;2.20;0.80;;;16.10;99.90;;;;;;5059426;28;20216;-79
2023/08/01 11:50:27;;;;;;;1.37;1.07;;;15.80;99.90;;;;;;5059417;28;20726;-79
2023/08/01 11:52:53;;;;;;;4.50;1.30;;;15.60;99.90;;;;;;5077324;28;20230;-78
2023/08/01 11:55:23;;;;;;;2.63;1.20;;;15.50;99.90;;;;;;5083968;28;20948;-78
2023/08/01 11:57:57;;;;;;;4.27;1.10;;;15.40;99.90;;;;;;5082437;28;20320;-78
2023/08/01 12:00:25;;;;;;;1.43;0.70;;;15.30;99.90;;;;;;5082539;28;20324;-79
2023/08/01 12:02:52;;;;;;;2.40;1.20;;;15.30;99.90;;;;;;5079606;28;20321;-79
2023/08/01 12:05:22;;;;;;;3.53;1.37;;;15.30;99.90;;;;;;5081197;28;20243;-78
2023/08/01 12:07:49;;;;;;;2.33;1.00;;;15.30;99.90;;;;;;5081303;28;20955;-78
2023/08/01 12:10:15;;;;;;;1.13;0.90;;;15.40;99.90;;;;;;5093330;28;20868;-78
2023/08/01 12:12:46;;;;;;;4.50;1.10;;;15.50;99.90;;;;;;5080848;28;20229;-78
2023/08/01 12:15:14;;;;;;;32.60;4.00;;;15.50;99.90;;;;;;5084276;28;20832;-78
2023/08/01 12:17:40;;;;;;;2.80;1.50;;;15.60;99.90;;;;;;5100311;28;20236;-78
2023/08/01 12:20:08;;;;;;;48.43;3.87;;;15.80;99.90;;;;;;5083674;28;20228;-78
2023/08/01 12:22:35;;;;;;;212.67;17.77;;;15.90;99.90;;;;;;5080345;28;20226;-78
2023/08/01 12:25:02;;;;;;;628.67;54.77;;;16.10;99.90;;;;;;5092123;28;20223;-78
2023/08/01 12:27:28;;;;;;;276.37;22.10;;;16.40;99.90;;;;;;5085722;28;20315;-78
2023/08/01 12:29:56;;;;;;;52.23;5.63;;;16.70;99.90;;;;;;5082089;28;20224;-78
2023/08/01 12:32:23;;;;;;;2.90;1.30;;;17.10;99.90;;;;;;5088148;28;20231;-78
2023/08/01 12:34:50;;;;;;;2.70;1.20;;;17.40;99.90;;;;;;5082501;28;20316;-78
2023/08/01 12:37:16;;;;;;;1.87;1.03;;;17.80;99.90;;;;;;5091712;28;20220;-78
2023/08/01 12:39:43;;;;;;;4.83;1.60;;;18.00;99.90;;;;;;5091479;28;20433;-78
2023/08/01 12:42:10;;;;;;;1.77;1.07;;;18.10;99.90;;;;;;5081992;28;20234;-78
2023/08/01 12:44:36;;;;;;;1.47;0.83;;;18.20;99.90;;;;;;5085872;28;20230;-78
2023/08/01 12:47:07;;;;;;;2.13;1.37;;;18.30;99.90;;;;;;5084495;28;20234;-79